Time;durP1;ratioP1;P1;durP2;ratioP2;P2;SDS_P1;SDS_P2;PMS_P1;PMS_P2;Temp;Humidity;BMP_temperature;BMP_pressure;BME280_temperature;BME280_humidity;BME280_pressure;Samples;Min_cycle;Max_cycle;Signal;HPM_P1;HPM_P2
2022/12/20 00:01:10;;;;;;;24.40;14.00;;;;;;;;;;5055741;28;20113;-62
2022/12/20 00:03:36;;;;;;;22.15;13.95;;;;;;;;;;5056071;28;20021;-62
2022/12/20 00:06:01;;;;;;;21.48;13.07;;;;;;;;;;5055928;28;20361;-62
2022/12/20 00:08:27;;;;;;;19.58;12.75;;;;;;;;;;5055646;28;20029;-62
2022/12/20 00:10:53;;;;;;;25.80;14.18;;;;;;;;;;5055621;28;20060;-63
2022/12/20 00:13:18;;;;;;;22.27;14.23;;;;;;;;;;5055525;28;20029;-63
2022/12/20 00:15:44;;;;;;;21.08;13.25;;;;;;;;;;5055468;28;20033;-64
2022/12/20 00:18:09;;;;;;;22.95;13.27;;;;;;;;;;5055817;28;20029;-62
2022/12/20 00:20:35;;;;;;;21.67;13.27;;;;;;;;;;5055334;28;20067;-62
2022/12/20 00:23:01;;;;;;;25.45;13.07;;;;;;;;;;5055475;28;20028;-63
2022/12/20 00:25:27;;;;;;;20.05;13.07;;;;;;;;;;5055585;28;20120;-63
2022/12/20 00:27:53;;;;;;;20.40;12.25;;;;;;;;;;5055687;28;20037;-63
2022/12/20 00:30:18;;;;;;;21.90;12.90;;;;;;;;;;5055147;28;20460;-62
2022/12/20 00:32:44;;;;;;;21.02;12.52;;;;;;;;;;5055269;28;20031;-64
2022/12/20 00:35:11;;;;;;;20.60;13.15;;;;;;;;;;5055471;28;20111;-63
2022/12/20 00:37:37;;;;;;;23.60;12.93;;;;;;;;;;5055108;28;20099;-63
2022/12/20 00:40:04;;;;;;;20.92;12.63;;;;;;;;;;5055369;28;20484;-63
2022/12/20 00:42:29;;;;;;;22.23;12.35;;;;;;;;;;5055164;28;20025;-62
2022/12/20 00:44:55;;;;;;;21.65;12.77;;;;;;;;;;5055040;28;20029;-63
2022/12/20 00:47:20;;;;;;;22.13;12.73;;;;;;;;;;5055354;28;20025;-63
2022/12/20 00:49:46;;;;;;;17.48;12.23;;;;;;;;;;5052477;28;20033;-63
2022/12/20 00:52:11;;;;;;;22.65;12.50;;;;;;;;;;5054500;28;20165;-64
2022/12/20 00:54:37;;;;;;;21.83;13.30;;;;;;;;;;5053806;28;20021;-62
2022/12/20 00:57:02;;;;;;;18.80;12.02;;;;;;;;;;5054950;28;20379;-62
2022/12/20 00:59:28;;;;;;;20.52;12.88;;;;;;;;;;5055055;28;20439;-62
2022/12/20 01:01:53;;;;;;;17.50;11.85;;;;;;;;;;5055255;28;20021;-62
2022/12/20 01:04:19;;;;;;;22.05;12.25;;;;;;;;;;5054783;28;20540;-62
2022/12/20 01:06:45;;;;;;;20.75;12.68;;;;;;;;;;5054763;28;20069;-63
2022/12/20 01:09:11;;;;;;;19.70;12.02;;;;;;;;;;5054876;28;20043;-62
2022/12/20 01:11:37;;;;;;;21.17;11.95;;;;;;;;;;5054723;28;20025;-62
2022/12/20 01:14:15;;;;;;;18.77;11.90;;;;;;;;;;5054554;28;20139;-62
2022/12/20 01:16:44;;;;;;;21.67;12.63;;;;;;;;;;5054623;28;20057;-61
2022/12/20 01:19:12;;;;;;;19.77;12.45;;;;;;;;;;5054789;28;20114;-61
2022/12/20 01:21:43;;;;;;;19.90;11.73;;;;;;;;;;5050275;28;20658;-60
2022/12/20 01:24:11;;;;;;;19.23;11.48;;;;;;;;;;5033437;28;20025;-61
2022/12/20 01:26:36;;;;;;;20.38;11.98;;;;;;;;;;5032097;28;20473;-60
2022/12/20 01:29:02;;;;;;;20.42;11.82;;;;;;;;;;5033277;28;20117;-61
2022/12/20 01:31:29;;;;;;;18.33;11.80;;;;;;;;;;5033210;28;20024;-61
2022/12/20 01:33:55;;;;;;;18.92;12.05;;;;;;;;;;5034026;28;20419;-61
2022/12/20 01:36:26;;;;;;;19.95;12.05;;;;;;;;;;5034219;28;20120;-61
2022/12/20 01:39:13;;;;;;;17.27;11.85;;;;;;;;;;5034455;28;20048;-61
2022/12/20 01:41:42;;;;;;;21.27;11.93;;;;;;;;;;5034163;28;20025;-61
2022/12/20 01:44:17;;;;;;;20.45;12.52;;;;;;;;;;5032793;28;20037;-62
2022/12/20 01:46:45;;;;;;;19.08;11.88;;;;;;;;;;5034187;28;20041;-61
2022/12/20 01:49:22;;;;;;;19.27;12.18;;;;;;;;;;5033352;28;20107;-62
2022/12/20 01:51:54;;;;;;;21.23;11.95;;;;;;;;;;5034304;28;20369;-61
2022/12/20 01:54:31;;;;;;;19.52;12.35;;;;;;;;;;5034023;28;20025;-63
2022/12/20 01:57:00;;;;;;;18.17;11.75;;;;;;;;;;5033858;28;20487;-61
2022/12/20 01:59:30;;;;;;;17.90;11.52;;;;;;;;;;5033899;28;20026;-61
2022/12/20 02:02:02;;;;;;;18.37;11.57;;;;;;;;;;5033674;28;20037;-61
2022/12/20 02:04:27;;;;;;;19.73;11.85;;;;;;;;;;5033836;28;20084;-60
2022/12/20 02:06:53;;;;;;;18.58;11.98;;;;;;;;;;5033656;28;20026;-61
2022/12/20 02:09:18;;;;;;;18.77;11.38;;;;;;;;;;5033553;28;20048;-61
2022/12/20 02:12:10;;;;;;;19.63;12.02;;;;;;;;;;5033650;28;20022;-61
2022/12/20 02:15:15;;;;;;;18.70;11.50;;;;;;;;;;5030407;28;20060;-61
2022/12/20 02:18:08;;;;;;;17.20;11.50;;;;;;;;;;5033449;28;20029;-61
2022/12/20 02:21:04;;;;;;;19.38;12.00;;;;;;;;;;5033425;28;20040;-61
2022/12/20 02:23:57;;;;;;;17.45;11.10;;;;;;;;;;5033423;28;20102;-61
2022/12/20 02:26:35;;;;;;;22.35;12.23;;;;;;;;;;5033231;28;20040;-61
2022/12/20 02:29:09;;;;;;;16.52;11.88;;;;;;;;;;5033256;28;20040;-63
2022/12/20 02:31:41;;;;;;;17.75;11.25;;;;;;;;;;5033210;28;20038;-61
2022/12/20 02:34:09;;;;;;;18.83;11.73;;;;;;;;;;5033248;28;20025;-63
2022/12/20 02:36:35;;;;;;;20.83;11.07;;;;;;;;;;5033148;28;20025;-61
2022/12/20 02:39:00;;;;;;;18.63;11.85;;;;;;;;;;5033117;28;20105;-62
2022/12/20 02:41:32;;;;;;;18.73;11.43;;;;;;;;;;5033088;28;20477;-63
2022/12/20 02:46:49;;;;;;;16.33;10.57;;;;;;;;;;5033218;28;20527;-63
2022/12/20 02:49:21;;;;;;;19.00;10.77;;;;;;;;;;5032781;28;20500;-63
2022/12/20 02:51:50;;;;;;;19.52;10.95;;;;;;;;;;5032859;28;20033;-60
2022/12/20 02:54:17;;;;;;;17.97;11.80;;;;;;;;;;5032886;28;20076;-61
2022/12/20 02:56:51;;;;;;;15.25;10.15;;;;;;;;;;5032692;28;20033;-61
2022/12/20 02:59:29;;;;;;;17.23;10.77;;;;;;;;;;5032705;28;20030;-61
2022/12/20 03:01:55;;;;;;;16.40;10.57;;;;;;;;;;5032695;28;20037;-61
2022/12/20 03:04:27;;;;;;;15.48;10.70;;;;;;;;;;5032955;28;20021;-61
2022/12/20 03:07:11;;;;;;;17.95;11.30;;;;;;;;;;5032581;28;20079;-61
2022/12/20 03:09:39;;;;;;;15.05;10.50;;;;;;;;;;5032771;28;20038;-60
2022/12/20 03:12:05;;;;;;;16.98;10.55;;;;;;;;;;5032612;28;20492;-61
2022/12/20 03:14:30;;;;;;;18.73;11.30;;;;;;;;;;5031826;28;20034;-61
2022/12/20 03:16:57;;;;;;;16.92;10.73;;;;;;;;;;5032556;28;20036;-61
2022/12/20 03:19:22;;;;;;;18.90;10.80;;;;;;;;;;5032478;28;20040;-61
2022/12/20 03:21:48;;;;;;;16.48;10.75;;;;;;;;;;5032495;28;20049;-61
2022/12/20 03:24:14;;;;;;;16.83;10.55;;;;;;;;;;5032491;28;20396;-61
2022/12/20 03:26:40;;;;;;;15.05;10.20;;;;;;;;;;5032538;28;20026;-60
2022/12/20 03:29:05;;;;;;;16.63;10.48;;;;;;;;;;5032604;28;20036;-61
2022/12/20 03:31:31;;;;;;;16.45;10.95;;;;;;;;;;5032661;28;20376;-61
2022/12/20 03:33:57;;;;;;;18.77;10.63;;;;;;;;;;5032379;28;20514;-61
2022/12/20 03:36:23;;;;;;;15.00;9.95;;;;;;;;;;5032458;28;20035;-61
2022/12/20 03:38:52;;;;;;;17.20;11.30;;;;;;;;;;5032587;28;20037;-61
2022/12/20 03:41:20;;;;;;;17.15;10.80;;;;;;;;;;5032576;28;20381;-62
2022/12/20 03:43:47;;;;;;;15.65;10.57;;;;;;;;;;5032150;28;20030;-61
2022/12/20 03:46:12;;;;;;;15.48;9.27;;;;;;;;;;5032292;28;20397;-61
2022/12/20 03:48:38;;;;;;;17.45;10.00;;;;;;;;;;5032164;28;20029;-61
2022/12/20 03:51:04;;;;;;;15.63;10.55;;;;;;;;;;5032226;28;20029;-61
2022/12/20 03:53:30;;;;;;;17.98;10.82;;;;;;;;;;5032073;28;20078;-61
2022/12/20 03:55:55;;;;;;;15.90;10.18;;;;;;;;;;5032139;28;20021;-61
2022/12/20 03:58:21;;;;;;;17.35;10.68;;;;;;;;;;5032425;28;20099;-61
2022/12/20 04:00:46;;;;;;;14.07;9.55;;;;;;;;;;5032140;28;20073;-60
2022/12/20 04:03:12;;;;;;;16.58;10.43;;;;;;;;;;5032259;28;20036;-61
2022/12/20 04:05:38;;;;;;;14.30;9.88;;;;;;;;;;5032088;28;20026;-60
2022/12/20 04:08:04;;;;;;;14.40;9.63;;;;;;;;;;5032031;28;20072;-62
2022/12/20 04:10:29;;;;;;;18.48;11.02;;;;;;;;;;5032216;28;20026;-60
2022/12/20 04:12:55;;;;;;;14.32;9.55;;;;;;;;;;5032291;28;20491;-63
2022/12/20 04:15:21;;;;;;;16.27;10.05;;;;;;;;;;5032002;28;20537;-61
2022/12/20 04:17:46;;;;;;;15.23;9.63;;;;;;;;;;5031802;28;20026;-61
2022/12/20 04:20:18;;;;;;;16.67;9.90;;;;;;;;;;5032182;28;20021;-61
2022/12/20 04:22:49;;;;;;;15.23;10.13;;;;;;;;;;5031691;28;20052;-61
2022/12/20 04:25:16;;;;;;;17.25;9.85;;;;;;;;;;5033770;28;20026;-61
2022/12/20 04:27:45;;;;;;;15.73;9.57;;;;;;;;;;5035830;28;20025;-61
2022/12/20 04:30:12;;;;;;;15.32;9.80;;;;;;;;;;5035496;28;20060;-61
2022/12/20 04:32:37;;;;;;;14.45;9.55;;;;;;;;;;5035494;28;20033;-62
2022/12/20 04:35:03;;;;;;;15.32;9.57;;;;;;;;;;5035449;28;20025;-61
2022/12/20 04:37:30;;;;;;;15.10;9.75;;;;;;;;;;5035691;28;20036;-61
2022/12/20 04:39:57;;;;;;;15.13;9.80;;;;;;;;;;5035415;28;20083;-61
2022/12/20 04:42:23;;;;;;;14.40;9.23;;;;;;;;;;5035313;28;20030;-62
2022/12/20 04:44:49;;;;;;;15.48;9.57;;;;;;;;;;5035621;28;20036;-61
2022/12/20 04:47:15;;;;;;;15.20;9.23;;;;;;;;;;5035209;28;20381;-61
2022/12/20 04:49:40;;;;;;;13.55;9.30;;;;;;;;;;5035026;28;20183;-60
2022/12/20 04:54:50;;;;;;;14.32;9.38;;;;;;;;;;5035492;28;20040;-63
2022/12/20 04:57:15;;;;;;;14.65;8.77;;;;;;;;;;5035302;28;20029;-62
2022/12/20 04:59:41;;;;;;;14.07;9.05;;;;;;;;;;5035326;28;20469;-61
2022/12/20 05:02:06;;;;;;;15.13;9.30;;;;;;;;;;5034943;28;20400;-61
2022/12/20 05:04:32;;;;;;;14.77;9.80;;;;;;;;;;5034915;28;20034;-61
2022/12/20 05:06:57;;;;;;;15.45;9.25;;;;;;;;;;5034814;28;20026;-61
2022/12/20 05:09:23;;;;;;;14.23;9.05;;;;;;;;;;5034799;28;20029;-61
2022/12/20 05:11:48;;;;;;;14.85;9.35;;;;;;;;;;5034773;28;20040;-61
2022/12/20 05:14:14;;;;;;;12.77;8.75;;;;;;;;;;5034693;28;20116;-63
2022/12/20 05:16:40;;;;;;;13.50;9.10;;;;;;;;;;5034961;28;20105;-61
2022/12/20 05:19:06;;;;;;;14.85;8.93;;;;;;;;;;5034928;28;20041;-61
2022/12/20 05:27:00;;;;;;;14.65;9.05;;;;;;;;;;5034555;28;20032;-61
2022/12/20 05:29:26;;;;;;;13.65;8.65;;;;;;;;;;5034585;28;20033;-62
2022/12/20 05:31:52;;;;;;;14.50;9.32;;;;;;;;;;5034373;28;20585;-61
2022/12/20 05:34:18;;;;;;;14.73;9.43;;;;;;;;;;5034355;28;20672;-62
2022/12/20 05:36:43;;;;;;;12.05;8.55;;;;;;;;;;5033801;28;20033;-61
2022/12/20 05:39:10;;;;;;;13.23;8.82;;;;;;;;;;5034539;28;20461;-62
2022/12/20 05:41:36;;;;;;;12.85;8.32;;;;;;;;;;5034273;28;20034;-61
2022/12/20 05:44:03;;;;;;;13.88;9.13;;;;;;;;;;5034328;28;20028;-61
2022/12/20 05:46:28;;;;;;;14.48;9.07;;;;;;;;;;5034297;28;20030;-61
2022/12/20 05:48:54;;;;;;;13.65;8.70;;;;;;;;;;5034178;28;20465;-60
2022/12/20 05:51:20;;;;;;;13.20;8.50;;;;;;;;;;5034277;28;20435;-60
2022/12/20 05:53:45;;;;;;;12.98;9.25;;;;;;;;;;5033900;28;20386;-60
2022/12/20 05:56:11;;;;;;;13.77;8.25;;;;;;;;;;5034120;28;20108;-61
2022/12/20 05:58:36;;;;;;;12.95;8.77;;;;;;;;;;5034138;28;20084;-61
2022/12/20 06:01:05;;;;;;;14.30;8.68;;;;;;;;;;5033802;28;20485;-61
2022/12/20 06:03:30;;;;;;;13.82;8.98;;;;;;;;;;5033715;28;20469;-60
2022/12/20 06:05:56;;;;;;;16.20;8.85;;;;;;;;;;5033959;28;20074;-61
2022/12/20 06:08:23;;;;;;;13.63;8.60;;;;;;;;;;5033850;28;20025;-61
2022/12/20 06:10:49;;;;;;;12.88;8.38;;;;;;;;;;5033604;28;20064;-61
2022/12/20 06:13:15;;;;;;;12.38;8.38;;;;;;;;;;5033511;28;20053;-61
2022/12/20 06:15:40;;;;;;;12.07;8.30;;;;;;;;;;5033516;28;20029;-61
2022/12/20 07:43:05;;;;;;;12.53;8.43;;;;;;;;;;4973583;28;1544066;-64
2022/12/20 07:45:30;;;;;;;14.02;8.18;;;;;;;;;;5028564;28;20038;-63
2022/12/20 07:47:56;;;;;;;12.98;8.48;;;;;;;;;;5005804;28;20040;-63
2022/12/20 07:50:23;;;;;;;11.73;7.88;;;;;;;;;;4998131;28;20026;-63
2022/12/20 07:52:50;;;;;;;11.55;8.57;;;;;;;;;;5015353;28;20117;-63
2022/12/20 07:55:16;;;;;;;13.05;8.23;;;;;;;;;;5015251;28;20030;-63
2022/12/20 07:57:49;;;;;;;11.63;7.80;;;;;;;;;;5013685;28;20030;-63
2022/12/20 08:00:17;;;;;;;12.18;7.90;;;;;;;;;;5014619;28;20037;-62
2022/12/20 08:03:00;;;;;;;13.45;8.88;;;;;;;;;;5013529;28;20041;-63
2022/12/20 08:05:26;;;;;;;12.23;8.25;;;;;;;;;;5014704;28;20440;-62
2022/12/20 08:07:53;;;;;;;12.70;8.25;;;;;;;;;;5024021;28;20092;-62
2022/12/20 08:10:19;;;;;;;11.65;7.80;;;;;;;;;;5019578;28;20018;-62
2022/12/20 08:12:47;;;;;;;12.70;7.82;;;;;;;;;;4995692;28;20125;-63
2022/12/20 08:15:13;;;;;;;11.35;7.90;;;;;;;;;;5013336;28;20060;-62
2022/12/20 08:17:39;;;;;;;12.80;8.15;;;;;;;;;;5013500;28;20061;-62
2022/12/20 08:20:05;;;;;;;12.30;8.30;;;;;;;;;;5013128;28;20389;-62
2022/12/20 08:22:32;;;;;;;10.55;7.47;;;;;;;;;;5013320;28;20022;-64
2022/12/20 08:24:57;;;;;;;14.30;8.63;;;;;;;;;;5013006;28;20030;-63
2022/12/20 08:27:23;;;;;;;12.15;8.48;;;;;;;;;;4995375;28;20083;-63
2022/12/20 08:29:49;;;;;;;11.27;8.18;;;;;;;;;;5022864;28;20021;-63
2022/12/20 08:32:15;;;;;;;11.10;7.93;;;;;;;;;;5022350;28;20025;-63
2022/12/20 08:34:40;;;;;;;11.98;7.70;;;;;;;;;;5020556;28;20025;-62
2022/12/20 08:37:06;;;;;;;11.73;7.70;;;;;;;;;;5021718;28;20049;-62
2022/12/20 08:39:32;;;;;;;12.15;8.50;;;;;;;;;;5022159;28;20615;-63
2022/12/20 08:41:57;;;;;;;11.82;7.70;;;;;;;;;;4995129;28;20049;-63
2022/12/20 08:44:23;;;;;;;12.00;7.32;;;;;;;;;;4975605;28;20389;-62
2022/12/20 08:46:48;;;;;;;11.85;7.60;;;;;;;;;;5005407;28;20030;-63
2022/12/20 08:49:14;;;;;;;12.95;8.32;;;;;;;;;;5012747;28;20177;-63
2022/12/20 08:51:40;;;;;;;11.23;7.80;;;;;;;;;;5012636;28;20026;-63
2022/12/20 08:54:05;;;;;;;11.75;7.68;;;;;;;;;;5012892;28;20563;-63
2022/12/20 08:56:31;;;;;;;10.70;7.07;;;;;;;;;;5009467;28;20054;-63
2022/12/20 08:58:56;;;;;;;10.85;7.57;;;;;;;;;;4992639;28;20073;-63
2022/12/20 09:01:22;;;;;;;11.60;7.80;;;;;;;;;;4999662;28;20025;-62
2022/12/20 09:03:48;;;;;;;12.15;8.25;;;;;;;;;;5012500;28;20041;-63
2022/12/20 09:06:17;;;;;;;11.38;7.63;;;;;;;;;;5012480;28;20026;-63
2022/12/20 09:08:42;;;;;;;11.27;7.57;;;;;;;;;;5012124;28;20037;-63
2022/12/20 09:11:20;;;;;;;14.27;8.30;;;;;;;;;;5012697;28;20038;-64
2022/12/20 09:13:48;;;;;;;12.05;7.78;;;;;;;;;;5002296;28;20477;-62
2022/12/20 09:16:16;;;;;;;11.77;7.68;;;;;;;;;;5008771;28;20117;-63
2022/12/20 09:18:42;;;;;;;12.32;8.15;;;;;;;;;;5008994;28;20595;-62
2022/12/20 09:21:10;;;;;;;11.02;7.93;;;;;;;;;;4975228;28;20046;-63
2022/12/20 09:23:36;;;;;;;9.52;7.25;;;;;;;;;;4992573;28;20030;-63
2022/12/20 09:26:07;;;;;;;10.27;7.15;;;;;;;;;;4992472;28;20162;-64
2022/12/20 09:28:33;;;;;;;10.90;7.45;;;;;;;;;;4992463;28;20453;-62
2022/12/20 09:31:00;;;;;;;11.60;7.57;;;;;;;;;;4992211;28;20422;-63
2022/12/20 09:33:27;;;;;;;10.90;7.78;;;;;;;;;;5001599;28;20349;-63
2022/12/20 09:35:53;;;;;;;10.63;7.00;;;;;;;;;;5016921;28;20022;-63
2022/12/20 09:38:19;;;;;;;10.75;8.02;;;;;;;;;;4998363;28;20041;-63
2022/12/20 09:40:54;;;;;;;10.68;7.50;;;;;;;;;;4989844;28;20057;-63
2022/12/20 09:43:20;;;;;;;10.00;7.18;;;;;;;;;;4989699;28;20033;-62
2022/12/20 09:45:50;;;;;;;10.93;7.22;;;;;;;;;;4990555;28;20026;-63
2022/12/20 09:48:23;;;;;;;11.98;7.40;;;;;;;;;;4991619;28;20430;-63
2022/12/20 09:51:14;;;;;;;11.50;7.28;;;;;;;;;;5005971;28;20033;-63
2022/12/20 09:54:13;;;;;;;10.63;7.53;;;;;;;;;;5010616;28;20037;-63
2022/12/20 09:56:45;;;;;;;11.77;7.65;;;;;;;;;;5011232;28;20052;-63
2022/12/20 09:59:18;;;;;;;8.93;7.28;;;;;;;;;;5011816;28;20108;-63
2022/12/20 10:01:45;;;;;;;10.65;7.70;;;;;;;;;;5011660;28;20034;-63
2022/12/20 10:04:28;;;;;;;11.75;7.60;;;;;;;;;;5010472;28;20105;-63
2022/12/20 10:07:26;;;;;;;10.60;7.60;;;;;;;;;;5009822;28;20041;-63
2022/12/20 10:10:07;;;;;;;9.60;7.13;;;;;;;;;;5010889;28;20477;-62
2022/12/20 10:13:01;;;;;;;10.40;7.57;;;;;;;;;;5015507;28;20021;-62
2022/12/20 10:15:55;;;;;;;9.15;7.15;;;;;;;;;;5030966;28;20037;-63
2022/12/20 10:18:45;;;;;;;10.07;7.30;;;;;;;;;;5005764;28;20065;-62
2022/12/20 10:21:25;;;;;;;9.73;7.10;;;;;;;;;;4953289;28;20038;-63
2022/12/20 10:24:04;;;;;;;12.52;7.28;;;;;;;;;;4991652;28;20392;-63
2022/12/20 10:26:32;;;;;;;11.88;7.60;;;;;;;;;;5010941;28;20030;-63
2022/12/20 10:28:57;;;;;;;9.90;7.03;;;;;;;;;;5009271;28;20065;-63
2022/12/20 10:31:24;;;;;;;10.18;7.05;;;;;;;;;;5011926;28;20054;-63
2022/12/20 10:33:50;;;;;;;9.90;7.30;;;;;;;;;;5011068;28;20037;-63
2022/12/20 10:36:33;;;;;;;11.15;7.30;;;;;;;;;;5011067;28;20022;-63
2022/12/20 10:39:07;;;;;;;10.82;7.28;;;;;;;;;;5009593;28;20030;-63
2022/12/20 10:41:53;;;;;;;11.20;7.60;;;;;;;;;;5009183;28;20046;-63
2022/12/20 10:44:27;;;;;;;10.07;6.93;;;;;;;;;;5010284;28;20037;-63
2022/12/20 10:46:59;;;;;;;9.18;7.10;;;;;;;;;;5011100;28;20057;-63
2022/12/20 10:49:32;;;;;;;10.68;7.05;;;;;;;;;;5011228;28;20048;-63
2022/12/20 10:52:07;;;;;;;11.63;7.50;;;;;;;;;;5010917;28;20034;-63
2022/12/20 10:54:36;;;;;;;12.05;6.68;;;;;;;;;;5010976;28;20030;-63
2022/12/20 10:57:26;;;;;;;10.82;7.28;;;;;;;;;;5010751;28;20037;-64
2022/12/20 11:00:00;;;;;;;10.63;7.20;;;;;;;;;;4993903;28;20040;-63
2022/12/20 11:02:30;;;;;;;10.50;7.30;;;;;;;;;;4991140;28;20034;-63
2022/12/20 11:05:08;;;;;;;10.73;6.90;;;;;;;;;;4991132;28;20485;-63
2022/12/20 11:07:35;;;;;;;9.57;6.93;;;;;;;;;;4991326;28;20089;-63
2022/12/20 11:10:27;;;;;;;9.05;6.60;;;;;;;;;;4991339;28;20684;-64
2022/12/20 11:12:54;;;;;;;10.32;7.38;;;;;;;;;;4987504;28;20035;-63
2022/12/20 11:15:24;;;;;;;8.95;6.85;;;;;;;;;;5009352;28;20029;-63
2022/12/20 11:18:22;;;;;;;12.55;7.53;;;;;;;;;;5011154;28;20429;-63
2022/12/20 11:20:54;;;;;;;8.10;6.53;;;;;;;;;;4995333;28;20052;-63
2022/12/20 11:23:29;;;;;;;9.93;7.20;;;;;;;;;;5011306;28;20562;-63
2022/12/20 11:26:19;;;;;;;10.23;7.28;;;;;;;;;;5014199;28;20036;-64
2022/12/20 11:29:22;;;;;;;10.35;7.22;;;;;;;;;;5014131;28;20477;-64
2022/12/20 11:32:02;;;;;;;10.75;6.93;;;;;;;;;;5014251;28;20093;-64
2022/12/20 11:34:46;;;;;;;;;;;;;;;;;;5014451;28;20038;-64
2022/12/20 11:37:15;;;;;;;9.25;6.53;;;;;;;;;;5015018;28;19917;-64
2022/12/20 11:40:05;;;;;;;9.82;6.38;;;;;;;;;;5013911;28;20022;-64
2022/12/20 11:42:36;;;;;;;9.80;6.40;;;;;;;;;;5013763;28;20058;-63
2022/12/20 11:45:20;;;;;;;10.45;7.25;;;;;;;;;;5014027;28;20072;-63
2022/12/20 11:48:03;;;;;;;8.43;6.43;;;;;;;;;;5014189;28;20033;-63
2022/12/20 11:51:04;;;;;;;9.63;6.55;;;;;;;;;;5013763;28;20076;-63
2022/12/20 11:53:55;;;;;;;10.30;6.93;;;;;;;;;;5008132;28;20060;-63
2022/12/20 11:56:31;;;;;;;10.77;6.68;;;;;;;;;;5013483;28;20022;-64
2022/12/20 11:59:26;;;;;;;9.23;6.38;;;;;;;;;;5013892;28;20030;-63
2022/12/20 12:02:13;;;;;;;9.77;6.40;;;;;;;;;;5006049;28;20494;-64
2022/12/20 12:05:02;;;;;;;9.68;6.70;;;;;;;;;;5013594;28;20038;-64
2022/12/20 12:07:35;;;;;;;20.45;10.88;;;;;;;;;;5013374;28;20080;-62
2022/12/20 12:10:20;;;;;;;19.02;11.65;;;;;;;;;;5013464;28;20473;-63
2022/12/20 12:12:56;;;;;;;16.10;11.05;;;;;;;;;;5011354;28;20342;-63
2022/12/20 12:15:37;;;;;;;16.45;10.73;;;;;;;;;;5012942;28;20034;-63
2022/12/20 12:18:26;;;;;;;17.95;11.05;;;;;;;;;;5010339;28;20041;-63
2022/12/20 12:21:04;;;;;;;17.13;11.05;;;;;;;;;;5012672;28;20088;-62
2022/12/20 12:23:54;;;;;;;17.75;11.40;;;;;;;;;;5013426;28;20044;-63
2022/12/20 12:26:26;;;;;;;17.83;10.63;;;;;;;;;;5013397;28;20079;-64
2022/12/20 12:28:54;;;;;;;15.00;10.43;;;;;;;;;;5013011;28;20030;-62
2022/12/20 12:31:31;;;;;;;15.63;10.45;;;;;;;;;;5011853;28;20037;-64
2022/12/20 12:34:16;;;;;;;19.25;11.52;;;;;;;;;;5013107;28;20443;-63
2022/12/20 12:37:03;;;;;;;16.25;10.50;;;;;;;;;;5012847;28;20030;-63
2022/12/20 12:39:48;;;;;;;16.33;11.00;;;;;;;;;;5011533;28;20026;-64
2022/12/20 12:42:51;;;;;;;17.92;11.20;;;;;;;;;;5011776;28;20053;-63
2022/12/20 12:45:46;;;;;;;19.58;10.88;;;;;;;;;;5012765;28;20061;-63
2022/12/20 12:48:18;;;;;;;17.20;10.32;;;;;;;;;;5004629;28;20065;-63
2022/12/20 12:50:53;;;;;;;22.33;11.85;;;;;;;;;;5009608;28;20036;-63
2022/12/20 12:53:49;;;;;;;20.65;11.57;;;;;;;;;;5012642;28;20065;-64
2022/12/20 12:56:27;;;;;;;21.65;11.73;;;;;;;;;;5010834;28;20084;-65
2022/12/20 12:59:05;;;;;;;16.85;10.38;;;;;;;;;;5012541;28;20042;-63
2022/12/20 13:02:16;;;;;;;20.80;11.43;;;;;;;;;;5012300;28;20022;-63
2022/12/20 13:05:07;;;;;;;19.33;11.63;;;;;;;;;;5011295;28;20049;-63
2022/12/20 13:07:34;;;;;;;18.95;11.77;;;;;;;;;;5012242;28;20080;-63
2022/12/20 13:10:23;;;;;;;20.50;11.15;;;;;;;;;;5013221;28;20037;-63
2022/12/20 13:12:49;;;;;;;20.63;11.45;;;;;;;;;;5012642;28;20149;-64
2022/12/20 13:15:21;;;;;;;19.00;10.95;;;;;;;;;;5013400;28;20133;-63
2022/12/20 13:17:59;;;;;;;19.23;10.57;;;;;;;;;;5013947;28;20033;-63
2022/12/20 13:20:30;;;;;;;19.50;11.27;;;;;;;;;;5013709;28;20026;-63
2022/12/20 13:23:09;;;;;;;24.02;11.93;;;;;;;;;;5012617;28;20044;-63
2022/12/20 13:25:36;;;;;;;18.23;11.00;;;;;;;;;;4976575;28;20050;-63
2022/12/20 13:28:23;;;;;;;17.08;10.75;;;;;;;;;;4993928;28;20511;-63
2022/12/20 13:31:15;;;;;;;17.30;10.77;;;;;;;;;;4993808;28;20030;-63
2022/12/20 13:33:43;;;;;;;17.90;10.85;;;;;;;;;;4968843;28;20038;-63
2022/12/20 13:36:09;;;;;;;18.40;10.93;;;;;;;;;;5000474;28;20025;-63
2022/12/20 13:38:54;;;;;;;18.65;10.70;;;;;;;;;;5013434;28;20026;-62
2022/12/20 13:41:22;;;;;;;18.95;11.05;;;;;;;;;;5013178;28;20050;-63
2022/12/20 13:43:50;;;;;;;16.10;10.80;;;;;;;;;;5009131;28;20034;-63
2022/12/20 13:46:35;;;;;;;17.23;10.52;;;;;;;;;;5010089;28;20030;-63
2022/12/20 13:49:09;;;;;;;17.45;10.70;;;;;;;;;;5013519;28;20397;-63
2022/12/20 13:51:35;;;;;;;16.00;10.15;;;;;;;;;;5013543;28;20385;-63
2022/12/20 13:54:03;;;;;;;16.48;10.15;;;;;;;;;;5012203;28;20033;-63
2022/12/20 13:56:49;;;;;;;18.67;10.90;;;;;;;;;;5011222;28;20029;-63
2022/12/20 13:59:25;;;;;;;17.52;11.10;;;;;;;;;;5012195;28;20021;-63
2022/12/20 14:01:57;;;;;;;16.92;10.43;;;;;;;;;;5012718;28;20025;-64
2022/12/20 14:04:26;;;;;;;16.50;10.63;;;;;;;;;;5013012;28;20425;-63
2022/12/20 14:07:00;;;;;;;16.65;10.18;;;;;;;;;;5013011;28;20100;-63
2022/12/20 14:09:36;;;;;;;17.92;10.32;;;;;;;;;;5012984;28;20025;-63
2022/12/20 14:12:10;;;;;;;16.77;10.43;;;;;;;;;;5012844;28;20037;-62
2022/12/20 14:14:38;;;;;;;17.10;10.35;;;;;;;;;;5013231;28;20381;-62
2022/12/20 14:17:32;;;;;;;16.80;10.48;;;;;;;;;;5012831;28;20029;-62
2022/12/20 14:20:06;;;;;;;20.88;11.15;;;;;;;;;;5013138;28;20065;-62
2022/12/20 14:22:33;;;;;;;16.10;10.00;;;;;;;;;;5012919;28;20080;-62
2022/12/20 14:25:04;;;;;;;16.83;10.50;;;;;;;;;;5012849;28;20720;-62
2022/12/20 14:27:34;;;;;;;16.42;10.00;;;;;;;;;;5013002;28;20105;-62
2022/12/20 14:30:00;;;;;;;15.85;9.90;;;;;;;;;;5012788;28;20088;-62
2022/12/20 14:32:27;;;;;;;14.95;10.07;;;;;;;;;;5012719;28;20018;-62
2022/12/20 14:34:52;;;;;;;16.92;9.85;;;;;;;;;;5012787;28;20083;-63
2022/12/20 14:37:33;;;;;;;16.83;10.30;;;;;;;;;;5010377;28;20446;-63
2022/12/20 14:40:02;;;;;;;15.82;10.65;;;;;;;;;;5010080;28;20504;-62
2022/12/20 14:42:37;;;;;;;18.48;9.55;;;;;;;;;;5008631;28;20050;-62
2022/12/20 14:45:09;;;;;;;16.13;10.55;;;;;;;;;;5010270;28;20026;-63
2022/12/20 14:47:35;;;;;;;15.10;9.57;;;;;;;;;;5005923;28;20081;-63
2022/12/20 14:50:16;;;;;;;18.05;10.20;;;;;;;;;;4992906;28;20030;-62
2022/12/20 14:52:42;;;;;;;14.55;9.85;;;;;;;;;;4993016;28;20081;-62
2022/12/20 14:55:15;;;;;;;17.13;9.93;;;;;;;;;;4992855;28;20101;-62
2022/12/20 14:57:50;;;;;;;14.38;9.43;;;;;;;;;;4992832;28;20041;-62
2022/12/20 15:00:33;;;;;;;17.15;10.52;;;;;;;;;;4996708;28;20068;-62
2022/12/20 15:03:11;;;;;;;13.32;9.10;;;;;;;;;;5004694;28;20473;-62
2022/12/20 15:05:37;;;;;;;23.67;11.00;;;;;;;;;;5016495;28;20114;-62
2022/12/20 15:08:27;;;;;;;15.77;10.23;;;;;;;;;;5016290;28;20026;-62
2022/12/20 15:11:02;;;;;;;18.55;11.10;;;;;;;;;;5016248;28;20034;-61
2022/12/20 15:13:35;;;;;;;19.27;11.57;;;;;;;;;;5016232;28;20036;-62
2022/12/20 15:16:13;;;;;;;18.33;11.20;;;;;;;;;;5016249;28;20022;-62
2022/12/20 15:18:39;;;;;;;20.98;11.70;;;;;;;;;;5016101;28;20038;-61
2022/12/20 15:21:15;;;;;;;17.95;11.60;;;;;;;;;;5016076;28;20056;-62
2022/12/20 15:23:50;;;;;;;24.35;13.82;;;;;;;;;;5016103;28;20026;-61
2022/12/20 15:26:19;;;;;;;21.80;14.18;;;;;;;;;;5016214;28;20029;-62
2022/12/20 15:28:45;;;;;;;21.52;13.35;;;;;;;;;;5015862;28;20037;-61
2022/12/20 15:31:13;;;;;;;19.20;12.35;;;;;;;;;;5015838;28;20128;-62
2022/12/20 15:33:40;;;;;;;22.10;12.65;;;;;;;;;;5015827;28;20033;-62
2022/12/20 15:36:12;;;;;;;24.10;13.13;;;;;;;;;;5008830;28;20026;-61
2022/12/20 15:38:37;;;;;;;22.60;12.13;;;;;;;;;;5006530;28;20030;-62
2022/12/20 15:41:05;;;;;;;17.80;12.30;;;;;;;;;;5000450;28;20176;-62
2022/12/20 15:43:37;;;;;;;21.95;12.20;;;;;;;;;;5014991;28;20045;-61
2022/12/20 15:46:03;;;;;;;18.08;11.65;;;;;;;;;;5015566;28;20068;-62
2022/12/20 15:48:29;;;;;;;18.25;11.40;;;;;;;;;;5015548;28;20050;-62
2022/12/20 15:50:57;;;;;;;19.02;11.88;;;;;;;;;;5015406;28;20076;-61
2022/12/20 15:53:30;;;;;;;19.65;11.73;;;;;;;;;;5015531;28;20030;-60
2022/12/20 15:55:56;;;;;;;18.38;11.43;;;;;;;;;;5014991;28;20436;-62
2022/12/20 15:58:23;;;;;;;21.35;11.48;;;;;;;;;;5013561;28;20616;-61
2022/12/20 16:00:51;;;;;;;19.45;11.18;;;;;;;;;;5011200;28;20030;-62
2022/12/20 16:03:22;;;;;;;20.98;11.48;;;;;;;;;;5015299;28;20022;-64
2022/12/20 16:05:50;;;;;;;20.85;11.75;;;;;;;;;;5014930;28;20060;-63
2022/12/20 16:08:17;;;;;;;17.77;10.63;;;;;;;;;;5014256;28;20073;-63
2022/12/20 16:10:46;;;;;;;17.02;10.70;;;;;;;;;;5014560;28;20041;-63
2022/12/20 16:13:20;;;;;;;17.73;10.07;;;;;;;;;;5015079;28;20096;-63
2022/12/20 16:15:46;;;;;;;18.13;10.68;;;;;;;;;;5014398;28;20033;-62
2022/12/20 16:18:11;;;;;;;17.33;10.88;;;;;;;;;;5013312;28;20034;-62
2022/12/20 16:20:37;;;;;;;16.95;10.63;;;;;;;;;;5014112;28;20070;-62
2022/12/20 16:23:06;;;;;;;21.15;10.30;;;;;;;;;;5014788;28;20025;-63
2022/12/20 16:25:34;;;;;;;17.02;10.80;;;;;;;;;;5013249;28;20101;-62